Home   Weather   USA   Tehachapi   Past weeks
Flag for USA

Past Weather in Tehachapi, California, USA — Yesterday and Last 2 Weeks

Currently: 55 °F. Sunny. (Weather station: Tehachapi Municipal Airport, USA). See more current weather

Past Weather in Tehachapi — Graph

°F

Tehachapi Temperature Yesterday

Maximum temperature yesterday: 90 °F (at 12:15 pm)
Minimum temperature yesterday: 54 °F (at 3:35 am)
Average temperature yesterday: 69 °F

High & Low Weather Summary for the Past Weeks

 TemperatureHumidityPressure
High90 °F (Sep 25, 2:35 pm)100% (Sep 15, 7:15 am)30.23 "Hg (Sep 15, 7:15 am)
Low41 °F (Sep 23, 5:35 am)12% (Sep 23, 11:15 am)29.82 "Hg (Sep 18, 3:55 am)
Average63 °F56%30.07 "Hg
* Reported Sep 14 9:15 am — Sep 29 6:35 am, Tehachapi. Weather by CustomWeather, © 2022

Note: Actual official high and low records may vary slightly from our data, if they occured in-between our weather recording intervals... More about our weather records

Tehachapi Weather History for the Previous 24 Hours

Scroll right to see more
 ConditionsComfort  
Time TempWeatherWind HumidityBarometerVisibility
6:35 am
Thu, Sep 29
52 °FClear.No wind77%30.20 "Hg8 mi
6:15 am52 °FClear.6 mph77%30.20 "Hg8 mi
5:35 am54 °FClear.No wind72%30.20 "Hg9 mi
5:15 am52 °FClear.No wind77%30.20 "Hg9 mi
4:35 am55 °FClear.No wind67%30.20 "Hg9 mi
4:15 am57 °FClear.No wind63%30.20 "Hg9 mi
3:55 am61 °FClear.No wind59%30.19 "Hg9 mi
3:35 am59 °FClear.No wind63%30.19 "Hg9 mi
3:15 am61 °FClear.6 mph59%30.20 "Hg9 mi
2:15 am63 °FClear.5 mph56%30.20 "Hg9 mi
1:55 am61 °FClear.5 mph59%30.20 "Hg9 mi
1:35 am63 °FClear.5 mph52%30.20 "Hg9 mi
1:15 am63 °FClear.5 mph52%30.19 "Hg10 mi
12:35 am61 °FClear.No wind59%30.19 "Hg8 mi
12:15 am61 °FClear.No wind59%30.19 "Hg9 mi
11:35 pm
Wed, Sep 28
64 °FClear.3 mph56%30.20 "Hg9 mi
11:15 pm64 °FClear.No wind56%30.20 "Hg9 mi
10:35 pm64 °FClear.3 mph56%30.20 "Hg8 mi
10:15 pm63 °FClear.No wind56%30.20 "Hg9 mi
9:55 pm64 °FClear.No wind52%30.20 "Hg9 mi
9:35 pm64 °FClear.3 mph52%30.20 "Hg9 mi
9:15 pm64 °FClear.No wind52%30.20 "Hg9 mi
8:55 pm66 °FClear.No wind52%30.19 "Hg8 mi
8:35 pm68 °FClear.6 mph49%30.19 "Hg8 mi
8:15 pm70 °FClear.10 mph46%30.18 "Hg9 mi
7:35 pm70 °FClear.9 mph46%30.18 "Hg9 mi
6:35 pm73 °FSunny.15 mph38%30.15 "Hg7 mi
6:15 pm75 °FSunny.9 mph36%30.15 "Hg8 mi
4:35 pm81 °FSunny.14 mph28%30.14 "Hg9 mi
4:15 pm82 °FSunny.14 mph26%30.14 "Hg9 mi
3:35 pm82 °FSunny.14 mph23%30.14 "Hg8 mi
3:15 pm84 °FSunny.18 mph23%30.14 "Hg9 mi
2:55 pm82 °FSunny.21 mph23%30.14 "Hg9 mi
2:35 pm84 °FSunny.21 mph23%30.14 "Hg7 mi
2:15 pm86 °FSunny.18 mph22%30.14 "Hg8 mi
1:35 pm90 °FSunny.14 mph20%30.15 "Hg7 mi
1:15 pm90 °FSunny.15 mph18%30.15 "Hg9 mi
12:35 pm90 °FSunny.7 mph13%30.16 "Hg10 mi
12:15 pm90 °FSunny.6 mph13%30.17 "Hg9 mi
11:35 am86 °FSunny.5 mph17%30.18 "Hg9 mi
11:15 am84 °FSunny.5 mph19%30.19 "Hg9 mi
10:35 am82 °FSunny.5 mph25%30.19 "Hg9 mi
10:15 am79 °FSunny.No wind30%30.19 "Hg10 mi
9:35 am73 °FSunny.No wind41%30.19 "Hg9 mi
9:15 am72 °FSunny.3 mph44%30.19 "Hg9 mi
8:55 am68 °FSunny.No wind49%30.19 "Hg8 mi
8:35 am66 °FSunny.No wind49%30.19 "Hg8 mi
8:15 am63 °FSunny.No wind56%30.19 "Hg8 mi
Weather by CustomWeather, © 2022

See weather overview